Terminal Aerodrome Forecast
Issued by NWS Paducah, KY

Home | Current Version | Previous Version | Text Only | Print | Product List | Glossary On
Versions: 1 2 3 4 5 6 7 8 9 10 11 12 13 14 15 16 17 18 19 20 21 22 23 24
400
FTUS43 KPAH 240224 AAB
TAFPAH
TAF AMD
KPAH 240224Z 2402/2424 16008KT P6SM SCT250
     FM241000 19012G18KT P6SM SCT035
     FM241500 20015G25KT P6SM SCT035 BKN100=

USA.gov is the U.S. government's official web portal to all federal, state and local government web resources and services.